createdAt,value
2019-03-18T00:04:05.999Z,72.97
2019-03-18T00:09:11.321Z,72.77
2019-03-18T00:14:16.666Z,72.85
2019-03-18T00:19:22.179Z,72.85
2019-03-18T00:24:27.526Z,72.73
2019-03-18T00:29:32.924Z,72.72
2019-03-18T00:34:38.310Z,72.81
2019-03-18T00:39:43.666Z,72.47
2019-03-18T00:44:48.822Z,72.12
2019-03-18T00:49:54.238Z,72.26
2019-03-18T00:54:59.390Z,72.29
2019-03-18T01:00:07.673Z,72.23
2019-03-18T01:05:13.343Z,71.87
2019-03-18T01:10:19.452Z,71.65
2019-03-18T01:15:28.180Z,71.28
2019-03-18T01:20:31.683Z,71.38
2019-03-18T01:25:36.813Z,71.13
2019-03-18T01:30:41.909Z,71.00
2019-03-18T01:35:46.996Z,70.63
2019-03-18T01:40:52.301Z,70.86
2019-03-18T01:45:57.402Z,70.83
2019-03-18T01:51:03.510Z,70.75
2019-03-18T01:56:08.604Z,70.96
2019-03-18T02:01:14.090Z,71.42
2019-03-18T02:06:19.203Z,71.55
2019-03-18T02:11:24.277Z,71.64
2019-03-18T02:16:29.395Z,72.23
2019-03-18T02:21:34.525Z,71.93
2019-03-18T02:26:39.756Z,71.94
2019-03-18T02:31:44.919Z,71.77
2019-03-18T02:36:50.129Z,71.76
2019-03-18T02:41:55.434Z,71.33
2019-03-18T02:47:00.535Z,71.24
2019-03-18T02:52:06.023Z,70.86
2019-03-18T02:57:11.068Z,70.25
2019-03-18T03:02:16.381Z,69.91
2019-03-18T03:07:21.655Z,69.25
2019-03-18T03:12:28.023Z,69.28
2019-03-18T03:17:33.143Z,69.34
2019-03-18T03:22:38.432Z,69.58
2019-03-18T03:27:43.809Z,69.36
2019-03-18T03:32:48.943Z,69.45
2019-03-18T03:37:54.211Z,69.67
2019-03-18T03:42:59.725Z,69.34
2019-03-18T03:48:05.309Z,69.55
2019-03-18T03:53:10.926Z,69.55
2019-03-18T03:58:16.519Z,69.53
2019-03-18T04:03:37.830Z,69.37
2019-03-18T04:08:30.716Z,69.31
2019-03-18T04:13:36.905Z,69.30
2019-03-18T04:18:42.081Z,69.01
2019-03-18T04:23:47.239Z,69.08
2019-03-18T04:28:52.475Z,68.93
2019-03-18T04:33:57.609Z,68.87
2019-03-18T04:39:02.911Z,68.90
2019-03-18T04:44:08.297Z,69.20
2019-03-18T04:49:14.688Z,69.17
2019-03-18T04:54:20.154Z,68.86
2019-03-18T04:59:25.249Z,69.27
2019-03-18T05:04:30.316Z,69.43
2019-03-18T05:09:35.632Z,69.19
2019-03-18T05:14:40.757Z,69.13
2019-03-18T05:19:45.896Z,69.10
2019-03-18T05:24:50.942Z,69.07
2019-03-18T05:29:55.994Z,68.56
2019-03-18T05:35:01.910Z,68.54
2019-03-18T05:40:08.600Z,68.56
2019-03-18T05:45:13.837Z,68.34
2019-03-18T05:50:19.073Z,68.13
2019-03-18T05:55:24.453Z,68.09
2019-03-18T06:00:29.635Z,68.04
2019-03-18T06:05:34.968Z,67.80
2019-03-18T06:10:40.030Z,67.51
2019-03-18T06:15:45.227Z,66.76
2019-03-18T06:20:50.380Z,66.13
2019-03-18T06:25:55.916Z,65.38
2019-03-18T06:31:01.107Z,65.06
2019-03-18T06:36:06.289Z,64.76
2019-03-18T06:41:11.392Z,64.87
2019-03-18T06:46:16.546Z,64.65
2019-03-18T06:51:21.636Z,64.32
2019-03-18T06:56:26.810Z,64.76
2019-03-18T07:01:32.028Z,64.53
2019-03-18T07:06:37.056Z,64.03
2019-03-18T07:11:42.225Z,64.06
2019-03-18T07:16:47.403Z,63.64
2019-03-18T07:21:52.531Z,62.87
2019-03-18T07:26:57.703Z,63.01
2019-03-18T07:32:02.803Z,62.69
2019-03-18T07:37:07.878Z,61.63
2019-03-18T07:42:12.919Z,61.15
2019-03-18T07:47:19.309Z,61.30
2019-03-18T07:52:24.344Z,62.05
2019-03-18T07:57:32.540Z,61.84
2019-03-18T08:02:36.429Z,62.00
2019-03-18T08:07:41.642Z,61.03
2019-03-18T08:12:46.770Z,59.87
2019-03-18T08:17:51.803Z,59.07
2019-03-18T08:22:56.936Z,58.78
2019-03-18T08:28:02.094Z,58.98
2019-03-18T08:33:07.242Z,59.68
2019-03-18T08:38:12.318Z,59.32
2019-03-18T08:43:17.410Z,59.15
2019-03-18T08:48:22.463Z,58.50
2019-03-18T08:53:27.526Z,57.98
2019-03-18T08:58:32.978Z,57.80
2019-03-18T09:03:38.107Z,57.54
2019-03-18T09:08:43.268Z,57.43
2019-03-18T09:13:48.383Z,57.01
2019-03-18T09:18:53.501Z,56.58
2019-03-18T09:23:58.573Z,57.03
2019-03-18T09:29:03.756Z,57.04
2019-03-18T09:34:08.971Z,55.70
2019-03-18T09:39:14.199Z,55.04
2019-03-18T09:44:19.313Z,54.52
2019-03-18T09:49:24.389Z,54.62
2019-03-18T09:54:29.554Z,54.75
2019-03-18T09:59:34.734Z,54.11
2019-03-18T10:04:39.821Z,53.96
2019-03-18T10:09:44.961Z,54.18
2019-03-18T10:14:50.221Z,53.71
2019-03-18T10:19:55.331Z,53.67
2019-03-18T10:25:00.418Z,53.98
2019-03-18T10:30:08.012Z,54.11
2019-03-18T10:35:13.262Z,54.79
2019-03-18T10:40:18.365Z,54.21
2019-03-18T10:45:25.960Z,53.71
2019-03-18T10:50:31.450Z,53.70
2019-03-18T10:55:36.767Z,53.31
2019-03-18T11:00:41.897Z,53.78
2019-03-18T11:05:47.007Z,53.90
2019-03-18T11:10:52.211Z,53.89
2019-03-18T11:15:57.250Z,53.64
2019-03-18T11:21:02.303Z,53.58
2019-03-18T11:26:08.226Z,53.56
2019-03-18T11:31:13.276Z,53.06
2019-03-18T11:36:18.425Z,52.28
2019-03-18T11:41:23.588Z,53.30
2019-03-18T11:46:28.732Z,53.35
2019-03-18T11:51:33.860Z,52.97
2019-03-18T11:56:38.988Z,53.02
2019-03-18T12:01:44.266Z,53.21
2019-03-18T12:06:49.304Z,52.18
2019-03-18T12:11:55.499Z,51.70
2019-03-18T12:17:00.591Z,52.02
2019-03-18T12:22:05.792Z,52.12
2019-03-18T12:27:10.876Z,52.90
2019-03-18T12:32:15.938Z,52.59
2019-03-18T12:37:21.045Z,52.94
2019-03-18T12:42:26.172Z,53.17
2019-03-18T12:47:31.277Z,52.89
2019-03-18T12:52:36.292Z,52.71
2019-03-18T12:57:41.511Z,51.34
2019-03-18T13:02:46.933Z,51.13
2019-03-18T13:07:52.118Z,51.10
2019-03-18T13:12:57.222Z,50.88
2019-03-18T13:18:02.446Z,51.69
2019-03-18T13:23:07.540Z,50.93
2019-03-18T13:28:12.600Z,51.45
2019-03-18T13:33:17.711Z,51.31
2019-03-18T13:38:22.754Z,50.84
2019-03-18T13:43:28.155Z,50.26
2019-03-18T13:48:33.515Z,49.89
2019-03-18T13:53:38.535Z,49.59
2019-03-18T13:58:43.793Z,50.28
2019-03-18T14:03:49.069Z,50.28
2019-03-18T14:08:54.151Z,51.17
2019-03-18T14:13:59.272Z,51.69
2019-03-18T14:19:04.954Z,50.93
2019-03-18T14:24:10.058Z,50.97
2019-03-18T14:29:15.192Z,50.48
2019-03-18T14:34:20.358Z,50.50
2019-03-18T14:39:25.400Z,51.01
2019-03-18T14:44:30.500Z,51.58
2019-03-18T14:49:35.554Z,54.83
2019-03-18T14:54:40.706Z,56.20
2019-03-18T14:59:45.754Z,55.26
2019-03-18T15:04:51.241Z,51.82
2019-03-18T15:09:56.335Z,48.17
2019-03-18T15:15:01.475Z,44.89
2019-03-18T15:20:12.578Z,44.10
2019-03-18T15:25:23.770Z,43.90
2019-03-18T15:30:28.931Z,44.51
2019-03-18T15:35:34.000Z,46.21
2019-03-18T15:40:39.144Z,50.17
2019-03-18T15:45:44.372Z,53.36
2019-03-18T15:50:49.470Z,55.27
2019-03-18T15:55:54.693Z,56.16
2019-03-18T16:00:59.872Z,56.30
2019-03-18T16:06:05.447Z,56.07
2019-03-18T16:11:10.623Z,55.58
2019-03-18T16:16:15.711Z,55.03
2019-03-18T16:21:20.833Z,55.12
2019-03-18T16:26:25.982Z,54.45
2019-03-18T16:31:31.154Z,54.31
2019-03-18T16:36:36.291Z,54.90
2019-03-18T16:41:41.350Z,55.27
2019-03-18T16:46:46.436Z,55.26
2019-03-18T16:51:51.635Z,55.02
2019-03-18T16:56:56.948Z,55.24
2019-03-18T17:02:02.035Z,55.45
2019-03-18T17:07:07.530Z,55.69
2019-03-18T17:12:12.674Z,55.61
2019-03-18T17:17:17.989Z,56.29
2019-03-18T17:22:23.022Z,57.13
2019-03-18T17:27:28.154Z,59.61
2019-03-18T17:32:33.401Z,66.74
2019-03-18T17:37:38.481Z,72.13
2019-03-18T17:42:43.718Z,73.46
2019-03-18T17:47:48.746Z,74.38
2019-03-18T17:53:02.204Z,74.38
2019-03-18T17:58:01.869Z,74.81
2019-03-18T18:03:07.098Z,74.19
2019-03-18T18:08:12.689Z,74.10
2019-03-18T18:13:17.906Z,73.92
2019-03-18T18:18:22.974Z,74.35
2019-03-18T18:23:28.144Z,74.82
2019-03-18T18:28:33.193Z,73.96
2019-03-18T18:33:38.402Z,74.32
2019-03-18T18:38:43.546Z,73.68
2019-03-18T18:43:48.709Z,74.23
2019-03-18T18:48:53.821Z,74.06
2019-03-18T18:53:58.962Z,74.34
2019-03-18T18:59:04.415Z,74.30
2019-03-18T19:04:09.612Z,74.27
2019-03-18T19:09:15.089Z,73.84
2019-03-18T19:14:20.287Z,73.82
2019-03-18T19:19:25.504Z,74.17
2019-03-18T19:24:30.653Z,74.20
2019-03-18T19:29:36.125Z,73.77
2019-03-18T19:34:41.609Z,74.07
2019-03-18T19:39:46.824Z,74.11
2019-03-18T19:44:51.938Z,74.31
2019-03-18T19:49:57.004Z,74.59
2019-03-18T19:55:03.038Z,74.45
2019-03-18T20:00:14.175Z,74.23
2019-03-18T20:05:19.385Z,74.07
2019-03-18T20:10:24.826Z,74.09
2019-03-18T20:15:30.153Z,73.74
2019-03-18T20:20:35.318Z,73.95
2019-03-18T20:25:40.607Z,73.29
2019-03-18T20:30:45.844Z,73.12
2019-03-18T20:35:50.956Z,72.88
2019-03-18T20:40:56.129Z,73.36
2019-03-18T20:46:01.220Z,72.97
2019-03-18T20:51:06.445Z,73.02
2019-03-18T20:56:12.833Z,73.52
2019-03-18T21:01:18.024Z,73.67
2019-03-18T21:06:23.091Z,73.65
2019-03-18T21:11:28.642Z,73.85
2019-03-18T21:16:33.824Z,73.77
2019-03-18T21:21:39.031Z,73.63
2019-03-18T21:26:44.164Z,73.71
2019-03-18T21:31:49.456Z,73.35
2019-03-18T21:36:54.675Z,73.13
2019-03-18T21:41:59.781Z,72.56
2019-03-18T21:47:04.974Z,72.70
2019-03-18T21:52:10.065Z,72.73
2019-03-18T21:57:15.437Z,72.36
2019-03-18T22:02:20.537Z,72.03
2019-03-18T22:07:25.662Z,72.36
2019-03-18T22:12:30.875Z,72.57
2019-03-18T22:17:35.984Z,72.67
2019-03-18T22:22:41.120Z,72.26
2019-03-18T22:27:46.348Z,72.12
2019-03-18T22:32:51.450Z,72.25
2019-03-18T22:37:56.549Z,71.84
2019-03-18T22:43:01.631Z,71.58
2019-03-18T22:48:06.844Z,72.02
2019-03-18T22:53:12.004Z,71.93
2019-03-18T22:58:19.310Z,71.64
2019-03-18T23:03:23.952Z,71.97
2019-03-18T23:08:29.563Z,72.00
2019-03-18T23:13:34.774Z,71.37
2019-03-18T23:18:39.927Z,71.22
2019-03-18T23:23:45.186Z,70.78
2019-03-18T23:28:50.310Z,70.49
2019-03-18T23:33:55.642Z,69.96
2019-03-18T23:39:00.901Z,69.85
2019-03-18T23:44:07.400Z,69.93
2019-03-18T23:49:12.496Z,69.87
2019-03-18T23:54:17.585Z,69.79
2019-03-18T23:59:22.578Z,69.51
